Terminal Aerodrome Forecast
Issued by NWS Grand Forks, ND

Home | Current Version | Previous Version | Text Only | Print | Product List | Glossary On
Versions: 1 2 3 4 5 6 7 8 9 10 11 12 13 14 15 16 17
327
FTUS43 KFGF 110530
TAFFAR
TAF
KFAR 110530Z 1106/1206 04009KT P6SM OVC040
      TEMPO 1106/1109 5SM -SN OVC040
     FM110900 05010KT 5SM -SN OVC035
      TEMPO 1109/1112 2SM -SN OVC025
     FM111200 06008KT 1SM -SN OVC030
     FM111700 02006KT P6SM OVC015
     FM120200 29006KT P6SM BKN035=

USA.gov is the U.S. government's official web portal to all federal, state and local government web resources and services.